sensor_id;sensor_type;location;lat;lon;timestamp;pressure;altitude;pressure_sealevel;temperature;humidity
19845;BME280;10083;51.038;7.012;2024-01-07T00:00:44;103663.19;;;4.88;100.00
19845;BME280;10083;51.038;7.012;2024-01-07T00:03:13;103656.09;;;4.87;100.00
19845;BME280;10083;51.038;7.012;2024-01-07T00:05:43;103659.38;;;4.81;100.00
19845;BME280;10083;51.038;7.012;2024-01-07T00:08:10;103658.25;;;4.95;100.00
19845;BME280;10083;51.038;7.012;2024-01-07T00:10:38;103661.44;;;4.88;100.00
19845;BME280;10083;51.038;7.012;2024-01-07T00:13:05;103652.78;;;4.73;100.00
19845;BME280;10083;51.038;7.012;2024-01-07T00:15:32;103651.97;;;4.93;100.00
19845;BME280;10083;51.038;7.012;2024-01-07T00:17:59;103659.38;;;4.81;100.00
19845;BME280;10083;51.038;7.012;2024-01-07T00:20:27;103662.88;;;4.99;100.00
19845;BME280;10083;51.038;7.012;2024-01-07T00:22:56;103666.16;;;4.94;100.00
19845;BME280;10083;51.038;7.012;2024-01-07T00:25:23;103658.09;;;4.73;100.00
19845;BME280;10083;51.038;7.012;2024-01-07T00:27:50;103667.31;;;4.81;100.00
19845;BME280;10083;51.038;7.012;2024-01-07T00:30:21;103651.41;;;4.81;100.00
19845;BME280;10083;51.038;7.012;2024-01-07T00:32:48;103670.69;;;4.77;100.00
19845;BME280;10083;51.038;7.012;2024-01-07T00:35:16;103669.63;;;4.74;100.00
19845;BME280;10083;51.038;7.012;2024-01-07T00:37:44;103662.97;;;4.83;100.00
19845;BME280;10083;51.038;7.012;2024-01-07T00:40:13;103665.16;;;4.92;100.00
19845;BME280;10083;51.038;7.012;2024-01-07T00:42:40;103649.81;;;5.04;100.00
19845;BME280;10083;51.038;7.012;2024-01-07T00:45:08;103649.31;;;5.13;100.00
19845;BME280;10083;51.038;7.012;2024-01-07T00:47:36;103642.25;;;4.94;100.00
19845;BME280;10083;51.038;7.012;2024-01-07T00:50:06;103650.00;;;4.89;100.00
19845;BME280;10083;51.038;7.012;2024-01-07T00:52:33;103628.34;;;4.80;100.00
19845;BME280;10083;51.038;7.012;2024-01-07T00:55:06;103621.78;;;4.91;100.00
19845;BME280;10083;51.038;7.012;2024-01-07T00:57:35;103629.59;;;5.08;100.00
19845;BME280;10083;51.038;7.012;2024-01-07T01:00:05;103625.97;;;5.06;100.00
19845;BME280;10083;51.038;7.012;2024-01-07T01:02:32;103630.53;;;5.08;100.00
19845;BME280;10083;51.038;7.012;2024-01-07T01:04:59;103625.41;;;5.13;100.00
19845;BME280;10083;51.038;7.012;2024-01-07T01:07:26;103619.25;;;5.14;100.00
19845;BME280;10083;51.038;7.012;2024-01-07T01:09:53;103624.38;;;4.90;100.00
19845;BME280;10083;51.038;7.012;2024-01-07T01:12:24;103621.63;;;4.88;100.00
19845;BME280;10083;51.038;7.012;2024-01-07T01:14:52;103630.28;;;4.84;100.00
19845;BME280;10083;51.038;7.012;2024-01-07T01:17:20;103624.00;;;5.01;100.00
19845;BME280;10083;51.038;7.012;2024-01-07T01:19:47;103619.25;;;5.14;100.00
19845;BME280;10083;51.038;7.012;2024-01-07T01:22:14;103614.00;;;4.96;100.00
19845;BME280;10083;51.038;7.012;2024-01-07T01:24:41;103611.72;;;5.04;100.00
19845;BME280;10083;51.038;7.012;2024-01-07T01:27:11;103624.72;;;4.97;100.00
19845;BME280;10083;51.038;7.012;2024-01-07T01:29:41;103620.72;;;4.88;100.00
19845;BME280;10083;51.038;7.012;2024-01-07T01:32:10;103622.34;;;5.04;100.00
19845;BME280;10083;51.038;7.012;2024-01-07T01:34:39;103606.19;;;4.99;100.00
19845;BME280;10083;51.038;7.012;2024-01-07T01:37:11;103608.09;;;4.82;100.00
19845;BME280;10083;51.038;7.012;2024-01-07T01:39:40;103597.47;;;5.01;100.00
19845;BME280;10083;51.038;7.012;2024-01-07T01:42:10;103585.16;;;4.84;100.00
19845;BME280;10083;51.038;7.012;2024-01-07T01:44:37;103575.75;;;4.91;100.00
19845;BME280;10083;51.038;7.012;2024-01-07T01:47:05;103588.25;;;4.93;100.00
19845;BME280;10083;51.038;7.012;2024-01-07T01:49:37;103580.16;;;4.90;100.00
19845;BME280;10083;51.038;7.012;2024-01-07T01:52:07;103581.53;;;5.01;100.00
19845;BME280;10083;51.038;7.012;2024-01-07T01:54:35;103582.63;;;4.87;100.00
19845;BME280;10083;51.038;7.012;2024-01-07T01:57:04;103574.69;;;4.68;100.00
19845;BME280;10083;51.038;7.012;2024-01-07T01:59:32;103582.50;;;4.84;100.00
19845;BME280;10083;51.038;7.012;2024-01-07T02:02:04;103580.34;;;4.57;100.00
19845;BME280;10083;51.038;7.012;2024-01-07T02:04:31;103574.88;;;4.92;100.00
19845;BME280;10083;51.038;7.012;2024-01-07T02:06:59;103577.06;;;4.81;100.00
19845;BME280;10083;51.038;7.012;2024-01-07T02:09:26;103584.88;;;4.97;100.00
19845;BME280;10083;51.038;7.012;2024-01-07T02:12:02;103577.34;;;5.07;100.00
19845;BME280;10083;51.038;7.012;2024-01-07T02:14:29;103585.59;;;4.93;100.00
19845;BME280;10083;51.038;7.012;2024-01-07T02:16:56;103584.47;;;5.08;100.00
19845;BME280;10083;51.038;7.012;2024-01-07T02:19:24;103591.22;;;5.01;100.00
19845;BME280;10083;51.038;7.012;2024-01-07T02:21:51;103583.25;;;5.01;100.00
19845;BME280;10083;51.038;7.012;2024-01-07T02:24:20;103594.47;;;5.13;100.00
19845;BME280;10083;51.038;7.012;2024-01-07T02:26:48;103596.06;;;4.90;100.00
19845;BME280;10083;51.038;7.012;2024-01-07T02:29:15;103594.34;;;4.91;100.00
19845;BME280;10083;51.038;7.012;2024-01-07T02:31:45;103593.41;;;4.90;100.00
19845;BME280;10083;51.038;7.012;2024-01-07T02:34:13;103605.44;;;4.82;100.00
19845;BME280;10083;51.038;7.012;2024-01-07T02:36:43;103594.34;;;4.91;100.00
19845;BME280;10083;51.038;7.012;2024-01-07T02:39:10;103617.31;;;4.90;100.00
19845;BME280;10083;51.038;7.012;2024-01-07T02:41:39;103607.53;;;4.89;100.00
19845;BME280;10083;51.038;7.012;2024-01-07T02:44:06;103612.28;;;4.77;100.00
19845;BME280;10083;51.038;7.012;2024-01-07T02:46:33;103614.38;;;4.84;100.00
19845;BME280;10083;51.038;7.012;2024-01-07T02:49:01;103626.66;;;4.63;100.00
19845;BME280;10083;51.038;7.012;2024-01-07T02:51:28;103625.91;;;4.85;100.00
19845;BME280;10083;51.038;7.012;2024-01-07T02:53:55;103631.13;;;4.83;100.00
19845;BME280;10083;51.038;7.012;2024-01-07T02:56:24;103629.88;;;4.94;100.00
19845;BME280;10083;51.038;7.012;2024-01-07T02:58:53;103640.34;;;4.72;100.00
19845;BME280;10083;51.038;7.012;2024-01-07T03:01:21;103628.28;;;4.98;100.00
19845;BME280;10083;51.038;7.012;2024-01-07T03:03:49;103631.56;;;4.73;100.00
19845;BME280;10083;51.038;7.012;2024-01-07T03:06:16;103631.75;;;4.97;100.00
19845;BME280;10083;51.038;7.012;2024-01-07T03:08:43;103627.25;;;4.94;100.00
19845;BME280;10083;51.038;7.012;2024-01-07T03:11:10;103632.59;;;4.96;100.00
19845;BME280;10083;51.038;7.012;2024-01-07T03:13:37;103629.81;;;4.93;100.00
19845;BME280;10083;51.038;7.012;2024-01-07T03:16:06;103647.00;;;4.82;100.00
19845;BME280;10083;51.038;7.012;2024-01-07T03:18:33;103641.31;;;4.74;100.00
19845;BME280;10083;51.038;7.012;2024-01-07T03:21:01;103635.38;;;4.80;100.00
19845;BME280;10083;51.038;7.012;2024-01-07T03:23:28;103651.03;;;4.74;100.00
19845;BME280;10083;51.038;7.012;2024-01-07T03:25:58;103641.69;;;4.82;100.00
19845;BME280;10083;51.038;7.012;2024-01-07T03:28:25;103647.75;;;4.60;100.00
19845;BME280;10083;51.038;7.012;2024-01-07T03:30:54;103638.97;;;4.80;100.00
19845;BME280;10083;51.038;7.012;2024-01-07T03:33:23;103646.09;;;4.81;100.00
19845;BME280;10083;51.038;7.012;2024-01-07T03:35:50;103644.69;;;4.89;100.00
19845;BME280;10083;51.038;7.012;2024-01-07T03:38:17;103659.06;;;4.75;100.00
19845;BME280;10083;51.038;7.012;2024-01-07T03:40:44;103643.69;;;4.87;100.00
19845;BME280;10083;51.038;7.012;2024-01-07T03:43:12;103655.84;;;4.63;100.00
19845;BME280;10083;51.038;7.012;2024-01-07T03:45:39;103646.69;;;4.76;100.00
19845;BME280;10083;51.038;7.012;2024-01-07T03:48:09;103658.72;;;4.68;100.00
19845;BME280;10083;51.038;7.012;2024-01-07T03:50:41;103675.03;;;4.40;100.00
19845;BME280;10083;51.038;7.012;2024-01-07T03:53:08;103662.19;;;4.67;100.00
19845;BME280;10083;51.038;7.012;2024-01-07T03:55:36;103681.22;;;4.58;100.00
19845;BME280;10083;51.038;7.012;2024-01-07T03:58:03;103684.56;;;4.54;100.00
19845;BME280;10083;51.038;7.012;2024-01-07T04:00:36;103675.94;;;4.58;100.00
19845;BME280;10083;51.038;7.012;2024-01-07T04:03:04;103686.84;;;4.64;100.00
19845;BME280;10083;51.038;7.012;2024-01-07T04:05:37;103684.47;;;4.70;100.00
19845;BME280;10083;51.038;7.012;2024-01-07T04:08:09;103692.63;;;4.55;100.00
19845;BME280;10083;51.038;7.012;2024-01-07T04:10:36;103695.88;;;4.68;100.00
19845;BME280;10083;51.038;7.012;2024-01-07T04:13:04;103702.31;;;4.55;100.00
19845;BME280;10083;51.038;7.012;2024-01-07T04:15:33;103694.38;;;4.55;100.00
19845;BME280;10083;51.038;7.012;2024-01-07T04:18:01;103705.91;;;4.55;100.00
19845;BME280;10083;51.038;7.012;2024-01-07T04:20:29;103702.25;;;4.53;100.00
19845;BME280;10083;51.038;7.012;2024-01-07T04:22:56;103708.22;;;4.67;100.00
19845;BME280;10083;51.038;7.012;2024-01-07T04:25:25;103710.59;;;4.43;100.00
19845;BME280;10083;51.038;7.012;2024-01-07T04:27:52;103721.50;;;4.49;100.00
19845;BME280;10083;51.038;7.012;2024-01-07T04:30:19;103721.72;;;4.54;100.00
19845;BME280;10083;51.038;7.012;2024-01-07T04:32:46;103733.81;;;4.47;100.00
19845;BME280;10083;51.038;7.012;2024-01-07T04:35:14;103746.88;;;4.44;100.00
19845;BME280;10083;51.038;7.012;2024-01-07T04:37:44;103752.13;;;4.43;100.00
19845;BME280;10083;51.038;7.012;2024-01-07T04:40:13;103776.84;;;4.42;100.00
19845;BME280;10083;51.038;7.012;2024-01-07T04:42:42;103761.59;;;4.20;100.00
19845;BME280;10083;51.038;7.012;2024-01-07T04:45:09;103790.88;;;4.39;100.00
19845;BME280;10083;51.038;7.012;2024-01-07T04:47:39;103797.59;;;4.33;100.00
19845;BME280;10083;51.038;7.012;2024-01-07T04:50:07;103807.66;;;4.40;100.00
19845;BME280;10083;51.038;7.012;2024-01-07T04:52:34;103810.19;;;4.37;100.00
19845;BME280;10083;51.038;7.012;2024-01-07T04:55:01;103807.38;;;4.34;100.00
19845;BME280;10083;51.038;7.012;2024-01-07T04:57:28;103790.16;;;4.26;100.00
19845;BME280;10083;51.038;7.012;2024-01-07T04:59:57;103800.13;;;4.14;100.00
19845;BME280;10083;51.038;7.012;2024-01-07T05:02:24;103791.28;;;4.31;100.00
19845;BME280;10083;51.038;7.012;2024-01-07T05:04:51;103801.69;;;4.44;100.00
19845;BME280;10083;51.038;7.012;2024-01-07T05:07:18;103812.44;;;4.29;100.00
19845;BME280;10083;51.038;7.012;2024-01-07T05:09:45;103799.09;;;4.28;100.00
19845;BME280;10083;51.038;7.012;2024-01-07T05:12:15;103794.50;;;4.07;100.00
19845;BME280;10083;51.038;7.012;2024-01-07T05:14:46;103795.81;;;4.16;100.00
19845;BME280;10083;51.038;7.012;2024-01-07T05:17:15;103819.19;;;4.06;100.00
19845;BME280;10083;51.038;7.012;2024-01-07T05:19:42;103800.00;;;4.28;100.00
19845;BME280;10083;51.038;7.012;2024-01-07T05:22:09;103795.00;;;4.17;100.00
19845;BME280;10083;51.038;7.012;2024-01-07T05:24:36;103804.97;;;4.22;100.00
19845;BME280;10083;51.038;7.012;2024-01-07T05:27:05;103798.19;;;4.27;100.00
19845;BME280;10083;51.038;7.012;2024-01-07T05:29:32;103800.59;;;4.23;100.00
19845;BME280;10083;51.038;7.012;2024-01-07T05:32:00;103791.66;;;4.21;100.00
19845;BME280;10083;51.038;7.012;2024-01-07T05:34:29;103791.84;;;4.41;100.00
19845;BME280;10083;51.038;7.012;2024-01-07T05:36:57;103789.06;;;4.22;100.00
19845;BME280;10083;51.038;7.012;2024-01-07T05:39:24;103788.47;;;4.28;100.00
19845;BME280;10083;51.038;7.012;2024-01-07T05:41:51;103783.72;;;4.21;100.00
19845;BME280;10083;51.038;7.012;2024-01-07T05:44:18;103773.53;;;4.12;100.00
19845;BME280;10083;51.038;7.012;2024-01-07T05:46:46;103780.00;;;4.17;100.00
19845;BME280;10083;51.038;7.012;2024-01-07T05:49:13;103775.78;;;4.38;100.00
19845;BME280;10083;51.038;7.012;2024-01-07T05:51:43;103796.91;;;4.37;100.00
19845;BME280;10083;51.038;7.012;2024-01-07T05:54:13;103806.09;;;4.09;100.00
19845;BME280;10083;51.038;7.012;2024-01-07T05:56:42;103799.53;;;4.19;100.00
19845;BME280;10083;51.038;7.012;2024-01-07T05:59:11;103795.91;;;4.17;100.00
19845;BME280;10083;51.038;7.012;2024-01-07T06:01:39;103786.28;;;4.19;100.00
19845;BME280;10083;51.038;7.012;2024-01-07T06:04:06;103800.97;;;3.96;100.00
19845;BME280;10083;51.038;7.012;2024-01-07T06:06:33;103803.88;;;4.01;100.00
19845;BME280;10083;51.038;7.012;2024-01-07T06:09:02;103809.66;;;4.10;100.00
19845;BME280;10083;51.038;7.012;2024-01-07T06:11:32;103800.78;;;4.26;100.00
19845;BME280;10083;51.038;7.012;2024-01-07T06:14:00;103799.28;;;4.15;100.00
19845;BME280;10083;51.038;7.012;2024-01-07T06:16:27;103811.56;;;4.13;100.00
19845;BME280;10083;51.038;7.012;2024-01-07T06:18:55;103801.59;;;3.91;100.00
19845;BME280;10083;51.038;7.012;2024-01-07T06:21:22;103822.69;;;3.89;100.00
19845;BME280;10083;51.038;7.012;2024-01-07T06:23:48;103833.88;;;4.00;100.00
19845;BME280;10083;51.038;7.012;2024-01-07T06:26:20;103833.06;;;3.85;100.00
19845;BME280;10083;51.038;7.012;2024-01-07T06:28:47;103837.84;;;3.92;100.00
19845;BME280;10083;51.038;7.012;2024-01-07T06:31:18;103837.09;;;4.10;100.00
19845;BME280;10083;51.038;7.012;2024-01-07T06:33:46;103846.72;;;4.08;100.00
19845;BME280;10083;51.038;7.012;2024-01-07T06:36:13;103843.00;;;3.89;100.00
19845;BME280;10083;51.038;7.012;2024-01-07T06:38:40;103853.84;;;3.93;100.00
19845;BME280;10083;51.038;7.012;2024-01-07T06:41:09;103857.22;;;4.07;100.00
19845;BME280;10083;51.038;7.012;2024-01-07T06:43:40;103855.56;;;4.09;100.00
19845;BME280;10083;51.038;7.012;2024-01-07T06:46:07;103851.69;;;4.02;100.00
19845;BME280;10083;51.038;7.012;2024-01-07T06:48:35;103868.09;;;3.95;100.00
19845;BME280;10083;51.038;7.012;2024-01-07T06:51:03;103858.06;;;4.06;100.00
19845;BME280;10083;51.038;7.012;2024-01-07T06:53:30;103867.91;;;3.92;100.00
19845;BME280;10083;51.038;7.012;2024-01-07T06:56:00;103876.78;;;3.93;100.00
19845;BME280;10083;51.038;7.012;2024-01-07T06:58:27;103884.84;;;3.94;100.00
19845;BME280;10083;51.038;7.012;2024-01-07T07:00:59;103883.66;;;4.05;100.00
19845;BME280;10083;51.038;7.012;2024-01-07T07:03:26;103886.81;;;3.98;100.00
19845;BME280;10083;51.038;7.012;2024-01-07T07:05:56;103897.31;;;3.97;100.00
19845;BME280;10083;51.038;7.012;2024-01-07T07:08:26;103911.84;;;4.03;100.00
19845;BME280;10083;51.038;7.012;2024-01-07T07:10:56;103916.38;;;3.90;100.00
19845;BME280;10083;51.038;7.012;2024-01-07T07:13:26;103909.59;;;3.95;100.00
19845;BME280;10083;51.038;7.012;2024-01-07T07:15:53;103920.03;;;3.92;100.00
19845;BME280;10083;51.038;7.012;2024-01-07T07:18:23;103927.16;;;3.93;100.00
19845;BME280;10083;51.038;7.012;2024-01-07T07:20:51;103913.78;;;3.75;100.00
19845;BME280;10083;51.038;7.012;2024-01-07T07:23:20;103906.19;;;3.81;100.00
19845;BME280;10083;51.038;7.012;2024-01-07T07:25:47;103908.94;;;3.83;100.00
19845;BME280;10083;51.038;7.012;2024-01-07T07:28:14;103923.41;;;3.73;100.00
19845;BME280;10083;51.038;7.012;2024-01-07T07:30:43;103914.00;;;3.94;100.00
19845;BME280;10083;51.038;7.012;2024-01-07T07:33:10;103904.97;;;3.91;100.00
19845;BME280;10083;51.038;7.012;2024-01-07T07:35:41;103929.13;;;3.97;100.00
19845;BME280;10083;51.038;7.012;2024-01-07T07:38:08;103925.25;;;3.90;100.00
19845;BME280;10083;51.038;7.012;2024-01-07T07:40:36;103933.22;;;3.90;100.00
19845;BME280;10083;51.038;7.012;2024-01-07T07:43:06;103935.34;;;3.97;100.00
19845;BME280;10083;51.038;7.012;2024-01-07T07:45:34;103929.03;;;3.79;100.00
19845;BME280;10083;51.038;7.012;2024-01-07T07:48:01;103935.84;;;3.74;100.00
19845;BME280;10083;51.038;7.012;2024-01-07T07:50:30;103941.97;;;3.73;100.00
19845;BME280;10083;51.038;7.012;2024-01-07T07:52:59;103934.41;;;3.64;100.00
19845;BME280;10083;51.038;7.012;2024-01-07T07:55:27;103930.22;;;3.53;100.00
19845;BME280;10083;51.038;7.012;2024-01-07T07:57:54;103939.44;;;3.91;100.00
19845;BME280;10083;51.038;7.012;2024-01-07T08:00:22;103954.72;;;3.80;100.00
19845;BME280;10083;51.038;7.012;2024-01-07T08:02:50;103955.13;;;3.88;100.00
19845;BME280;10083;51.038;7.012;2024-01-07T08:05:17;103948.09;;;3.88;100.00
19845;BME280;10083;51.038;7.012;2024-01-07T08:07:45;103958.69;;;3.88;100.00
19845;BME280;10083;51.038;7.012;2024-01-07T08:10:14;103958.13;;;3.78;100.00
19845;BME280;10083;51.038;7.012;2024-01-07T08:12:44;103962.50;;;3.77;100.00
19845;BME280;10083;51.038;7.012;2024-01-07T08:15:12;103974.59;;;3.88;100.00
19845;BME280;10083;51.038;7.012;2024-01-07T08:17:40;103971.56;;;3.97;100.00
19845;BME280;10083;51.038;7.012;2024-01-07T08:20:08;103971.56;;;3.97;100.00
19845;BME280;10083;51.038;7.012;2024-01-07T08:22:35;103966.84;;;3.91;100.00
19845;BME280;10083;51.038;7.012;2024-01-07T08:25:03;103979.66;;;3.84;100.00
19845;BME280;10083;51.038;7.012;2024-01-07T08:27:32;103976.06;;;3.67;100.00
19845;BME280;10083;51.038;7.012;2024-01-07T08:30:04;103991.09;;;3.83;100.00
19845;BME280;10083;51.038;7.012;2024-01-07T08:32:31;103998.19;;;3.84;100.00
19845;BME280;10083;51.038;7.012;2024-01-07T08:34:58;104010.06;;;3.74;100.00
19845;BME280;10083;51.038;7.012;2024-01-07T08:37:26;104008.00;;;3.85;100.00
19845;BME280;10083;51.038;7.012;2024-01-07T08:39:53;104032.59;;;3.82;100.00
19845;BME280;10083;51.038;7.012;2024-01-07T08:42:19;104041.63;;;3.86;100.00
19845;BME280;10083;51.038;7.012;2024-01-07T08:44:48;104043.19;;;3.82;100.00
19845;BME280;10083;51.038;7.012;2024-01-07T08:47:16;104047.16;;;3.74;100.00
19845;BME280;10083;51.038;7.012;2024-01-07T08:49:47;104029.56;;;3.91;100.00
19845;BME280;10083;51.038;7.012;2024-01-07T08:52:14;104038.50;;;3.93;100.00
19845;BME280;10083;51.038;7.012;2024-01-07T08:54:41;104034.84;;;3.91;100.00
19845;BME280;10083;51.038;7.012;2024-01-07T08:57:08;104033.16;;;3.77;100.00
19845;BME280;10083;51.038;7.012;2024-01-07T08:59:36;104055.59;;;3.83;100.00
19845;BME280;10083;51.038;7.012;2024-01-07T09:02:05;104043.09;;;3.81;100.00
19845;BME280;10083;51.038;7.012;2024-01-07T09:04:32;104045.66;;;3.79;100.00
19845;BME280;10083;51.038;7.012;2024-01-07T09:07:00;104039.31;;;3.92;100.00
19845;BME280;10083;51.038;7.012;2024-01-07T09:09:28;104067.09;;;3.98;100.00
19845;BME280;10083;51.038;7.012;2024-01-07T09:11:55;104072.88;;;3.91;100.00
19845;BME280;10083;51.038;7.012;2024-01-07T09:14:24;104077.56;;;3.66;100.00
19845;BME280;10083;51.038;7.012;2024-01-07T09:16:52;104069.38;;;3.92;100.00
19845;BME280;10083;51.038;7.012;2024-01-07T09:19:21;104080.84;;;3.77;100.00
19845;BME280;10083;51.038;7.012;2024-01-07T09:21:48;104091.34;;;3.75;100.00
19845;BME280;10083;51.038;7.012;2024-01-07T09:24:16;104092.72;;;3.83;100.00
19845;BME280;10083;51.038;7.012;2024-01-07T09:26:44;104101.94;;;3.75;100.00
19845;BME280;10083;51.038;7.012;2024-01-07T09:29:12;104110.38;;;3.68;100.00
19845;BME280;10083;51.038;7.012;2024-01-07T09:31:39;104105.63;;;3.77;100.00
19845;BME280;10083;51.038;7.012;2024-01-07T09:34:07;104116.88;;;3.73;100.00
19845;BME280;10083;51.038;7.012;2024-01-07T09:36:36;104130.09;;;3.88;100.00
19845;BME280;10083;51.038;7.012;2024-01-07T09:39:03;104116.28;;;3.79;100.00
19845;BME280;10083;51.038;7.012;2024-01-07T09:41:32;104127.25;;;3.99;100.00
19845;BME280;10083;51.038;7.012;2024-01-07T09:43:59;104106.38;;;4.05;100.00
19845;BME280;10083;51.038;7.012;2024-01-07T09:46:29;104068.44;;;4.06;100.00
19845;BME280;10083;51.038;7.012;2024-01-07T09:48:57;104081.78;;;3.77;100.00
19845;BME280;10083;51.038;7.012;2024-01-07T09:51:26;104074.28;;;4.01;100.00
19845;BME280;10083;51.038;7.012;2024-01-07T09:54:02;104084.84;;;3.85;100.00
19845;BME280;10083;51.038;7.012;2024-01-07T09:56:38;104079.34;;;3.96;100.00
19845;BME280;10083;51.038;7.012;2024-01-07T09:59:07;104090.91;;;3.53;100.00
19845;BME280;10083;51.038;7.012;2024-01-07T10:01:35;104086.91;;;3.59;100.00
19845;BME280;10083;51.038;7.012;2024-01-07T10:04:03;104094.84;;;3.45;100.00
19845;BME280;10083;51.038;7.012;2024-01-07T10:06:31;104110.84;;;3.32;100.00
19845;BME280;10083;51.038;7.012;2024-01-07T10:09:01;104089.13;;;3.52;100.00
19845;BME280;10083;51.038;7.012;2024-01-07T10:11:30;104097.59;;;3.46;100.00
19845;BME280;10083;51.038;7.012;2024-01-07T10:13:58;104088.09;;;3.50;100.00
19845;BME280;10083;51.038;7.012;2024-01-07T10:16:25;104098.38;;;3.75;100.00
19845;BME280;10083;51.038;7.012;2024-01-07T10:18:53;104095.19;;;3.65;100.00
19845;BME280;10083;51.038;7.012;2024-01-07T10:21:20;104135.69;;;3.34;100.00
19845;BME280;10083;51.038;7.012;2024-01-07T10:23:47;104123.63;;;3.53;100.00
19845;BME280;10083;51.038;7.012;2024-01-07T10:26:16;104120.53;;;3.46;100.00
19845;BME280;10083;51.038;7.012;2024-01-07T10:28:43;104111.56;;;3.58;100.00
19845;BME280;10083;51.038;7.012;2024-01-07T10:31:11;104132.66;;;3.57;100.00
19845;BME280;10083;51.038;7.012;2024-01-07T10:33:40;104128.28;;;3.72;100.00
19845;BME280;10083;51.038;7.012;2024-01-07T10:36:09;104147.97;;;3.18;100.00
19845;BME280;10083;51.038;7.012;2024-01-07T10:38:36;104150.22;;;3.26;100.00
19845;BME280;10083;51.038;7.012;2024-01-07T10:41:05;104154.94;;;3.31;100.00
19845;BME280;10083;51.038;7.012;2024-01-07T10:43:38;104137.78;;;3.54;100.00
19845;BME280;10083;51.038;7.012;2024-01-07T10:46:09;104119.84;;;3.94;100.00
19845;BME280;10083;51.038;7.012;2024-01-07T10:48:38;104136.50;;;3.91;100.00
19845;BME280;10083;51.038;7.012;2024-01-07T10:51:11;104136.63;;;3.78;100.00
19845;BME280;10083;51.038;7.012;2024-01-07T10:53:42;104153.75;;;3.41;100.00
19845;BME280;10083;51.038;7.012;2024-01-07T10:56:11;104153.69;;;3.54;100.00
19845;BME280;10083;51.038;7.012;2024-01-07T10:58:45;104159.88;;;3.40;100.00
19845;BME280;10083;51.038;7.012;2024-01-07T11:01:23;104156.50;;;3.57;100.00
19845;BME280;10083;51.038;7.012;2024-01-07T11:03:57;104166.41;;;3.59;100.00
19845;BME280;10083;51.038;7.012;2024-01-07T11:06:34;104174.06;;;3.55;100.00
19845;BME280;10083;51.038;7.012;2024-01-07T11:09:14;104169.41;;;3.51;100.00
19845;BME280;10083;51.038;7.012;2024-01-07T11:11:44;104156.03;;;3.79;100.00
19845;BME280;10083;51.038;7.012;2024-01-07T11:14:41;104169.84;;;3.58;100.00
19845;BME280;10083;51.038;7.012;2024-01-07T11:17:11;104176.91;;;3.73;100.00
19845;BME280;10083;51.038;7.012;2024-01-07T11:19:49;104181.28;;;3.43;100.00
19845;BME280;10083;51.038;7.012;2024-01-07T11:22:24;104188.78;;;3.22;100.00
19845;BME280;10083;51.038;7.012;2024-01-07T11:24:57;104197.53;;;3.49;100.00
19845;BME280;10083;51.038;7.012;2024-01-07T11:27:25;104182.56;;;3.64;100.00
19845;BME280;10083;51.038;7.012;2024-01-07T11:29:57;104181.72;;;3.50;100.00
19845;BME280;10083;51.038;7.012;2024-01-07T11:32:29;104191.88;;;3.43;100.00
19845;BME280;10083;51.038;7.012;2024-01-07T11:34:56;104192.50;;;3.39;100.00
19845;BME280;10083;51.038;7.012;2024-01-07T11:37:25;104189.22;;;3.43;100.00
19845;BME280;10083;51.038;7.012;2024-01-07T11:39:55;104195.84;;;3.22;100.00
19845;BME280;10083;51.038;7.012;2024-01-07T11:42:23;104195.44;;;3.58;100.00
19845;BME280;10083;51.038;7.012;2024-01-07T11:44:52;104209.84;;;3.06;100.00
19845;BME280;10083;51.038;7.012;2024-01-07T11:47:22;104207.88;;;3.16;100.00
19845;BME280;10083;51.038;7.012;2024-01-07T11:49:50;104204.25;;;3.29;100.00
19845;BME280;10083;51.038;7.012;2024-01-07T11:52:17;104206.81;;;3.28;100.00
19845;BME280;10083;51.038;7.012;2024-01-07T11:54:44;104214.34;;;3.07;100.00
19845;BME280;10083;51.038;7.012;2024-01-07T11:57:13;104204.97;;;3.27;100.00
19845;BME280;10083;51.038;7.012;2024-01-07T11:59:40;104216.13;;;3.36;100.00
19845;BME280;10083;51.038;7.012;2024-01-07T12:02:08;104208.69;;;3.43;100.00
19845;BME280;10083;51.038;7.012;2024-01-07T12:04:36;104215.06;;;3.47;100.00
19845;BME280;10083;51.038;7.012;2024-01-07T12:07:04;104215.44;;;3.38;100.00
19845;BME280;10083;51.038;7.012;2024-01-07T12:09:32;104225.06;;;3.23;100.00
19845;BME280;10083;51.038;7.012;2024-01-07T12:11:59;104231.75;;;3.31;100.00
19845;BME280;10083;51.038;7.012;2024-01-07T12:14:27;104220.44;;;3.34;100.00
19845;BME280;10083;51.038;7.012;2024-01-07T12:16:58;104230.00;;;3.32;100.00
19845;BME280;10083;51.038;7.012;2024-01-07T12:19:25;104236.31;;;3.06;100.00
19845;BME280;10083;51.038;7.012;2024-01-07T12:22:02;104214.50;;;3.38;100.00
19845;BME280;10083;51.038;7.012;2024-01-07T12:24:30;104236.47;;;3.22;100.00
19845;BME280;10083;51.038;7.012;2024-01-07T12:27:03;104243.50;;;3.22;100.00
19845;BME280;10083;51.038;7.012;2024-01-07T12:29:30;104235.56;;;3.22;100.00
19845;BME280;10083;51.038;7.012;2024-01-07T12:31:59;104237.16;;;3.33;100.00
19845;BME280;10083;51.038;7.012;2024-01-07T12:34:28;104238.34;;;3.38;100.00
19845;BME280;10083;51.038;7.012;2024-01-07T12:36:56;104236.75;;;3.27;100.00
19845;BME280;10083;51.038;7.012;2024-01-07T12:39:26;104247.97;;;3.23;100.00
19845;BME280;10083;51.038;7.012;2024-01-07T12:41:54;104249.56;;;3.34;100.00
19845;BME280;10083;51.038;7.012;2024-01-07T12:44:22;104259.41;;;3.22;100.00
19845;BME280;10083;51.038;7.012;2024-01-07T12:46:53;104257.94;;;3.27;100.00
19845;BME280;10083;51.038;7.012;2024-01-07T12:49:21;104278.50;;;3.03;100.00
19845;BME280;10083;51.038;7.012;2024-01-07T12:51:48;104288.91;;;3.00;100.00
19845;BME280;10083;51.038;7.012;2024-01-07T12:54:15;104285.59;;;3.17;100.00
19845;BME280;10083;51.038;7.012;2024-01-07T12:56:44;104296.81;;;3.13;100.00